M I D A S
Marine Information and Data Acquisition System
Tripno 2293 of the Zeeleeuw from 2012-04-19 13:09:01 to 2012-04-19 13:09:03
Back to CruiseResearch ActivitiesStationsMapUnderway DataData graphs

EquipmentUnitsComment
TimeDGPSUTC
LatitudeDGPSDM.mWGS84
LongitudeDGPSDM.mWGS84
HeadingGyrodeg 
SOGDGPSknotsSpeed over ground
COGDGPSdegCourse over ground
DepthEcho soundermeters200 kHz
Missing or incorrect values are displayed as -999
Navigation data collected by the RV Zeeleeuw from 2012-04-19 08:09:03 to 2012-04-19 13:27:47
                                                                                    Next 1000 lines
Time Latitude Longitude Heading SOG COG Depth
2012-04-19 08:09:13 51°26.034 2°48.662 21.5 6.9 12 24.4
2012-04-19 08:09:19 51°26.044 2°48.666 21 6.4 10 24.5
2012-04-19 08:09:23 51°26.051 2°48.665 14.1 6.1 1 24.7
2012-04-19 08:09:28 51°26.059 2°48.663 6.9 5.9 353 23.8
2012-04-19 08:09:33 51°26.066 2°48.659 359.4 5.6 340 -999
2012-04-19 08:09:39 51°26.074 2°48.653 349.9 5.4 333 25.4
2012-04-19 08:09:43 51°26.079 2°48.649 341.2 5.2 329 25.4
2012-04-19 08:09:48 51°26.085 2°48.641 333 5.4 321 25.2
2012-04-19 08:09:53 51°26.089 2°48.633 327.4 5.1 313 25.1
2012-04-19 08:09:58 51°26.092 2°48.624 319.6 4.9 304 24.8
2012-04-19 08:10:03 51°26.096 2°48.615 311.5 4.6 299 24.3
2012-04-19 08:10:08 51°26.098 2°48.606 304.8 4.2 295 25
2012-04-19 08:10:13 51°26.099 2°48.599 299.6 3.8 289 24.4
2012-04-19 08:10:18 51°26.101 2°48.592 297.5 3.4 290 24.6
2012-04-19 08:10:23 51°26.102 2°48.585 297 3.1 292 24.5
2012-04-19 08:10:28 51°26.103 2°48.58 297.7 2.6 288 23.9
2012-04-19 08:10:33 51°26.105 2°48.576 300.3 2.3 291 24.1
2012-04-19 08:10:38 51°26.106 2°48.572 302 2.1 296 24.2
2012-04-19 08:10:43 51°26.107 2°48.568 304.2 1.9 299 23.7
2012-04-19 08:10:48 51°26.107 2°48.565 306.4 1.7 289 24
2012-04-19 08:10:53 51°26.108 2°48.562 307.8 1.4 294 24.5
2012-04-19 08:10:58 51°26.108 2°48.56 308.1 1.1 283 24.5
2012-04-19 08:11:03 51°26.108 2°48.558 307.2 0.6 278 24.4
2012-04-19 08:11:08 51°26.108 2°48.557 305.9 0.5 260 24.1
2012-04-19 08:11:13 51°26.108 2°48.557 305 0.4 305 23.9
2012-04-19 08:11:18 51°26.108 2°48.557 304.9 0.4 261 23.8
2012-04-19 08:11:23 51°26.108 2°48.556 304.5 0.3 286 24
2012-04-19 08:11:27 51°26.108 2°48.556 304.1 0.2 289 24.4
2012-04-19 08:11:33 51°26.108 2°48.555 303.3 0.2 309 24.5
2012-04-19 08:11:38 51°26.108 2°48.555 303 0.2 270 24.5
2012-04-19 08:11:43 51°26.108 2°48.554 303.7 0.2 315 24.5
2012-04-19 08:11:48 51°26.108 2°48.554 303.7 0.3 274 24.2
2012-04-19 08:11:53 51°26.108 2°48.553 303.5 0.2 304 23.9
2012-04-19 08:11:58 51°26.108 2°48.553 303.7 0.3 292 23.9
2012-04-19 08:12:03 51°26.109 2°48.552 304.4 0.3 322 23.8
2012-04-19 08:12:08 51°26.109 2°48.552 304.7 0.2 322 24
2012-04-19 08:12:13 51°26.109 2°48.552 304.9 0.2 325 24.3
2012-04-19 08:12:18 51°26.109 2°48.552 305 0.1 327 24.8
2012-04-19 08:12:23 51°26.109 2°48.552 305.5 0.1 272 24.7
2012-04-19 08:12:28 51°26.109 2°48.551 306.3 0.1 315 24.5
2012-04-19 08:12:33 51°26.109 2°48.551 307.1 0.2 344 24.4
2012-04-19 08:12:38 51°26.109 2°48.551 307.7 0.2 330 24.3
2012-04-19 08:12:43 51°26.109 2°48.55 308.2 0.1 348 24.7
2012-04-19 08:12:48 51°26.109 2°48.55 308.6 0.2 343 24.3
2012-04-19 08:12:53 51°26.109 2°48.55 309.2 0.1 344 24.3
2012-04-19 08:12:58 51°26.109 2°48.55 309.3 0.2 2 24.5
2012-04-19 08:13:03 51°26.109 2°48.549 309.5 0.2 229 24.3
2012-04-19 08:13:08 51°26.109 2°48.549 310 0.1 240 24.3
2012-04-19 08:13:13 51°26.109 2°48.549 310.4 0.1 266 24
2012-04-19 08:13:18 51°26.109 2°48.548 310.5 0.3 228 23.4
2012-04-19 08:13:23 51°26.11 2°48.548 310.7 0.1 334 23.8
2012-04-19 08:13:28 51°26.109 2°48.548 311 0.2 357 23.9
2012-04-19 08:13:33 51°26.11 2°48.548 310.4 0.2 6 24
2012-04-19 08:13:39 51°26.11 2°48.548 310.5 0.2 351 24.3
2012-04-19 08:13:43 51°26.11 2°48.547 310.2 0.1 299 24.3
2012-04-19 08:13:47 51°26.11 2°48.547 309.9 0.1 301 24.3
2012-04-19 08:13:53 51°26.109 2°48.547 309 0.3 250 24.1
2012-04-19 08:13:58 51°26.109 2°48.547 308.4 0.1 330 24.1
2012-04-19 08:14:03 51°26.11 2°48.547 308.6 0.1 317 24.7
2012-04-19 08:14:08 51°26.109 2°48.546 308.4 0.1 352 24.9
2012-04-19 08:14:13 51°26.11 2°48.546 307.9 0.1 357 24.8
2012-04-19 08:14:18 51°26.109 2°48.546 308 0.1 202 24.6
2012-04-19 08:14:23 51°26.109 2°48.546 308 0.2 231 24.5
2012-04-19 08:14:28 51°26.11 2°48.546 307.8 0.2 13 24.5
2012-04-19 08:14:33 51°26.11 2°48.545 307.8 0.1 304 24.5
2012-04-19 08:14:38 51°26.11 2°48.545 307.5 0.1 358 24.7
2012-04-19 08:14:43 51°26.11 2°48.545 307.1 0.1 31 24.9
2012-04-19 08:14:48 51°26.11 2°48.545 306.5 0.1 208 24.7
2012-04-19 08:14:53 51°26.11 2°48.545 305.7 0.1 335 24.6
2012-04-19 08:14:58 51°26.11 2°48.545 305.4 0.1 27 24.6
2012-04-19 08:15:03 51°26.11 2°48.545 304.6 -999 157 24.6
2012-04-19 08:15:08 51°26.11 2°48.545 305.4 0.2 351 24.3
2012-04-19 08:15:13 51°26.11 2°48.545 305.2 0.1 275 24.1
2012-04-19 08:15:18 51°26.111 2°48.545 305.2 0.2 358 24.1
2012-04-19 08:15:23 51°26.111 2°48.545 304.4 0.1 348 24.4
2012-04-19 08:15:27 51°26.111 2°48.545 303.5 0.1 339 24.5
2012-04-19 08:15:33 51°26.111 2°48.544 303.4 0.1 2 24.4
2012-04-19 08:15:38 51°26.111 2°48.544 302.9 0.1 289 24.2
2012-04-19 08:15:43 51°26.112 2°48.544 302.8 0.1 310 24.4
2012-04-19 08:15:48 51°26.112 2°48.543 302.2 0.2 314 24.1
2012-04-19 08:15:53 51°26.112 2°48.543 301.9 0.1 278 24
2012-04-19 08:15:58 51°26.112 2°48.543 301.5 -999 331 24
2012-04-19 08:16:03 51°26.112 2°48.543 300.8 0.2 346 23.8
2012-04-19 08:16:08 51°26.112 2°48.543 300.4 0.2 281 24.2
2012-04-19 08:16:13 51°26.112 2°48.543 299.9 0.2 304 24.2
2012-04-19 08:16:18 51°26.112 2°48.542 299.7 0.2 330 24.3
2012-04-19 08:16:23 51°26.112 2°48.542 299.2 0.2 323 24.2
2012-04-19 08:16:28 51°26.113 2°48.542 298.9 0.2 356 24.5
2012-04-19 08:16:33 51°26.113 2°48.542 298.7 0.1 254 24.4
2012-04-19 08:16:38 51°26.113 2°48.542 298.4 0.1 250 24
2012-04-19 08:16:43 51°26.113 2°48.542 298.5 0.2 329 23.8
2012-04-19 08:16:48 51°26.113 2°48.541 298.3 0.1 288 23.8
2012-04-19 08:16:53 51°26.113 2°48.541 297.9 0.1 337 23.9
2012-04-19 08:16:58 51°26.113 2°48.541 297.9 0.1 345 23.8
2012-04-19 08:17:03 51°26.113 2°48.541 298.2 0.2 265 23.9
2012-04-19 08:17:08 51°26.113 2°48.541 298.6 0.1 296 23.9
2012-04-19 08:17:13 51°26.114 2°48.54 299 0.1 313 24.1
2012-04-19 08:17:18 51°26.113 2°48.54 298.4 0.1 318 24.2
2012-04-19 08:17:23 51°26.114 2°48.54 298.1 0.2 326 24.4
2012-04-19 08:17:28 51°26.114 2°48.54 297.8 0.1 315 24.4
2012-04-19 08:17:33 51°26.114 2°48.539 297.7 0.1 305 24.3
2012-04-19 08:17:38 51°26.114 2°48.539 298.1 0.1 318 23.9
2012-04-19 08:17:43 51°26.114 2°48.539 298.5 0.2 343 23.8
2012-04-19 08:17:48 51°26.114 2°48.539 298.3 0.2 308 23.8
2012-04-19 08:17:53 51°26.114 2°48.539 297.4 0.2 352 24.1
2012-04-19 08:17:58 51°26.115 2°48.538 297.3 0.3 299 24.2
2012-04-19 08:18:03 51°26.115 2°48.538 297.2 0.2 321 24
2012-04-19 08:18:08 51°26.115 2°48.538 297.6 0.3 357 24.2
2012-04-19 08:18:13 51°26.115 2°48.538 297.6 0.1 340 24
2012-04-19 08:18:18 51°26.115 2°48.538 297.8 0.2 342 23.8
2012-04-19 08:18:23 51°26.116 2°48.538 298.2 0.2 335 23.7
2012-04-19 08:18:28 51°26.116 2°48.537 297.8 0.3 331 23.6
2012-04-19 08:18:33 51°26.116 2°48.537 297.8 0.4 331 23.8
2012-04-19 08:18:38 51°26.116 2°48.537 297.7 0.2 297 24.1
2012-04-19 08:18:43 51°26.116 2°48.537 297.8 0.2 323 24
2012-04-19 08:18:48 51°26.116 2°48.536 297.7 0.2 293 24
2012-04-19 08:18:53 51°26.117 2°48.536 297.8 0.2 328 24.1
2012-04-19 08:18:58 51°26.117 2°48.536 297.7 0.2 353 24.2
2012-04-19 08:19:03 51°26.117 2°48.536 296.8 0.1 272 24.3
2012-04-19 08:19:08 51°26.117 2°48.535 296.9 0.2 333 24
2012-04-19 08:19:13 51°26.118 2°48.536 296.4 0.3 355 23.9
2012-04-19 08:19:18 51°26.118 2°48.535 295.9 0.2 351 24.3
2012-04-19 08:19:23 51°26.118 2°48.535 295.7 0.1 336 24.4
2012-04-19 08:19:27 51°26.118 2°48.535 296.1 0.1 1 24.4
2012-04-19 08:19:33 51°26.118 2°48.535 296.5 0.2 355 24.4
2012-04-19 08:19:38 51°26.118 2°48.534 296.9 0.1 286 24
2012-04-19 08:19:43 51°26.118 2°48.534 297 0.2 346 24.2
2012-04-19 08:19:47 51°26.118 2°48.534 297 0.2 309 24.2
2012-04-19 08:19:53 51°26.118 2°48.533 297 0.2 297 23.8
2012-04-19 08:19:58 51°26.119 2°48.533 296.8 0.2 335 23.8
2012-04-19 08:20:03 51°26.119 2°48.533 296.8 0.2 326 23.9
2012-04-19 08:20:08 51°26.12 2°48.533 296.4 0.2 350 23.9
2012-04-19 08:20:13 51°26.12 2°48.533 297 -999 279 23.5
2012-04-19 08:20:18 51°26.12 2°48.533 298 0.2 351 23.4
2012-04-19 08:20:23 51°26.12 2°48.533 298.2 0.2 318 23.6
2012-04-19 08:20:28 51°26.121 2°48.533 298.4 0.2 304 23.5
2012-04-19 08:20:33 51°26.121 2°48.532 298.5 0.2 298 23.7
2012-04-19 08:20:38 51°26.121 2°48.532 298.8 0.2 267 23.5
2012-04-19 08:20:43 51°26.121 2°48.532 299.1 0.3 325 23.4
2012-04-19 08:20:48 51°26.121 2°48.532 299.5 0.2 320 23.6
2012-04-19 08:20:53 51°26.121 2°48.532 298.7 0.2 -999 23.9
2012-04-19 08:20:58 51°26.122 2°48.532 298.9 0.2 356 24.1
2012-04-19 08:21:03 51°26.122 2°48.532 299.2 0.2 327 23.6
2012-04-19 08:21:08 51°26.122 2°48.532 299.7 0.2 322 23.5
2012-04-19 08:21:13 51°26.123 2°48.532 299.8 0.3 1 23.4
2012-04-19 08:21:18 51°26.122 2°48.531 299.7 0.2 325 23.5
2012-04-19 08:21:23 51°26.123 2°48.531 299.7 0.2 318 23.3
2012-04-19 08:21:28 51°26.123 2°48.531 299.8 0.2 313 23.5
2012-04-19 08:21:33 51°26.123 2°48.531 299.5 0.1 307 23.7
2012-04-19 08:21:38 51°26.123 2°48.531 299.2 0.1 320 23.8
2012-04-19 08:21:43 51°26.123 2°48.531 298.7 0.1 302 23.6
2012-04-19 08:21:48 51°26.124 2°48.53 298.6 0.3 344 23.1
2012-04-19 08:21:53 51°26.124 2°48.53 298.4 0.3 330 23.2
2012-04-19 08:21:58 51°26.124 2°48.53 298.4 0.4 352 23.4
2012-04-19 08:22:03 51°26.124 2°48.53 297.9 0.2 293 23.8
2012-04-19 08:22:08 51°26.125 2°48.53 297.8 0.3 349 23.6
2012-04-19 08:22:13 51°26.125 2°48.529 298.2 0.2 303 23.5
2012-04-19 08:22:18 51°26.125 2°48.529 297.9 0.2 336 23.4
2012-04-19 08:22:23 51°26.126 2°48.528 297.5 0.3 299 23.3
2012-04-19 08:22:28 51°26.126 2°48.528 297.9 0.3 324 23.5
2012-04-19 08:22:33 51°26.126 2°48.528 297.6 0.3 291 23.5
2012-04-19 08:22:38 51°26.127 2°48.528 297.3 0.4 341 23.4
2012-04-19 08:22:43 51°26.126 2°48.527 297.1 0.3 302 23.5
2012-04-19 08:22:47 51°26.126 2°48.527 296.9 0.2 327 23.6
2012-04-19 08:22:53 51°26.127 2°48.527 296.5 0.2 316 23.5
2012-04-19 08:22:58 51°26.127 2°48.527 296.3 0.2 330 23.4
2012-04-19 08:23:03 51°26.128 2°48.526 296.4 0.3 333 23.2
2012-04-19 08:23:08 51°26.129 2°48.526 296.2 0.4 341 23.1
2012-04-19 08:23:13 51°26.13 2°48.526 296.3 0.5 352 23.2
2012-04-19 08:23:18 51°26.13 2°48.526 295.6 0.4 342 23.5
2012-04-19 08:23:23 51°26.13 2°48.525 295.9 0.4 2 23.4
2012-04-19 08:23:28 51°26.13 2°48.525 295.8 0.3 348 23.3
2012-04-19 08:23:33 51°26.13 2°48.525 296.4 0.3 344 23.6
2012-04-19 08:23:38 51°26.131 2°48.525 296.5 0.4 6 23.9
2012-04-19 08:23:43 51°26.131 2°48.525 295.8 0.3 345 23.6
2012-04-19 08:23:48 51°26.13 2°48.524 296.3 0.2 296 23.4
2012-04-19 08:23:53 51°26.131 2°48.524 296.4 0.1 339 23.2
2012-04-19 08:23:58 51°26.131 2°48.524 296.3 0.2 325 23.4
2012-04-19 08:24:03 51°26.131 2°48.524 296.3 0.3 346 23.6
2012-04-19 08:24:07 51°26.131 2°48.524 296.1 0.3 351 24
2012-04-19 08:24:13 51°26.132 2°48.523 295.8 0.2 350 24
2012-04-19 08:24:18 51°26.132 2°48.523 295.9 0.2 347 24
2012-04-19 08:24:23 51°26.132 2°48.524 296.9 0.1 29 24
2012-04-19 08:24:28 51°26.133 2°48.524 297.2 0.2 43 24
2012-04-19 08:24:33 51°26.133 2°48.524 297.7 0.2 38 23.8
2012-04-19 08:24:38 51°26.133 2°48.524 298.1 0.2 30 23.7
2012-04-19 08:24:43 51°26.133 2°48.524 298.4 0.2 20 23.7
2012-04-19 08:24:48 51°26.133 2°48.524 298.8 0.1 43 23.8
2012-04-19 08:24:53 51°26.133 2°48.523 299 0.1 268 23.6
2012-04-19 08:24:58 51°26.134 2°48.524 299.3 -999 57 23.6
2012-04-19 08:25:03 51°26.134 2°48.524 300 0.1 138 23.5
2012-04-19 08:25:07 51°26.134 2°48.524 300.2 -999 128 23.4
2012-04-19 08:25:13 51°26.134 2°48.524 300.5 -999 86 23.1
2012-04-19 08:25:18 51°26.134 2°48.524 301.1 0.1 73 23.3
2012-04-19 08:25:23 51°26.134 2°48.524 301.6 -999 181 23.3
2012-04-19 08:25:28 51°26.134 2°48.524 301.3 0.1 338 23
2012-04-19 08:25:33 51°26.135 2°48.524 301.8 0.2 350 22.9
2012-04-19 08:25:38 51°26.135 2°48.524 301.9 0.2 2 23.2
2012-04-19 08:25:43 51°26.135 2°48.524 302.2 0.1 31 23.4
2012-04-19 08:25:48 51°26.135 2°48.525 302 0.2 58 23.6
2012-04-19 08:25:53 51°26.135 2°48.525 301.9 0.1 65 23.7
2012-04-19 08:25:58 51°26.135 2°48.525 301.9 0.1 48 23.9
2012-04-19 08:26:03 51°26.135 2°48.525 302.1 0.2 195 23.6
2012-04-19 08:26:08 51°26.135 2°48.525 302.5 0.1 44 23.2
2012-04-19 08:26:13 51°26.135 2°48.525 302.6 0.1 345 23.6
2012-04-19 08:26:18 51°26.136 2°48.525 302.5 0.1 359 23.7
2012-04-19 08:26:23 51°26.136 2°48.526 302.6 0.1 38 24
2012-04-19 08:26:27 51°26.135 2°48.525 302.4 -999 72 24
2012-04-19 08:26:33 51°26.136 2°48.526 302.5 0.2 23 24
2012-04-19 08:26:38 51°26.136 2°48.526 303.2 -999 59 24.1
2012-04-19 08:26:43 51°26.136 2°48.526 302.9 -999 251 23.8
2012-04-19 08:26:48 51°26.136 2°48.526 303.2 0.1 21 23.6
2012-04-19 08:26:53 51°26.136 2°48.526 303.8 0.1 317 23.5
2012-04-19 08:26:58 51°26.136 2°48.527 304.5 0.3 38 23.7
2012-04-19 08:27:03 51°26.136 2°48.527 304.9 0.1 42 24
2012-04-19 08:27:08 51°26.137 2°48.527 304.3 0.1 38 24.1
2012-04-19 08:27:13 51°26.137 2°48.527 304.3 -999 140 24.1
2012-04-19 08:27:18 51°26.137 2°48.527 304.2 0.1 12 23.9
2012-04-19 08:27:23 51°26.137 2°48.527 303.5 -999 26 23.8
2012-04-19 08:27:28 51°26.138 2°48.527 303.2 0.1 54 23.9
2012-04-19 08:27:33 51°26.138 2°48.527 303.3 0.1 347 23.7
2012-04-19 08:27:38 51°26.138 2°48.528 303 0.4 16 23.8
2012-04-19 08:27:43 51°26.138 2°48.528 302.4 0.3 20 23.7
2012-04-19 08:27:48 51°26.138 2°48.528 302 0.2 53 23.9
2012-04-19 08:27:53 51°26.138 2°48.528 302 0.2 49 23.9
2012-04-19 08:27:58 51°26.138 2°48.528 302 0.1 94 24.1
2012-04-19 08:28:03 51°26.139 2°48.528 302.1 0.2 46 23.9
2012-04-19 08:28:08 51°26.139 2°48.528 301.3 0.1 353 23.8
2012-04-19 08:28:13 51°26.139 2°48.529 300.6 0.3 15 23.7
2012-04-19 08:28:18 51°26.139 2°48.529 299.7 0.2 355 23.5
2012-04-19 08:28:23 51°26.14 2°48.529 298.9 0.3 359 23.3
2012-04-19 08:28:27 51°26.14 2°48.529 298.5 0.3 4 23.4
2012-04-19 08:28:33 51°26.14 2°48.529 298.5 0.3 24 24
2012-04-19 08:28:38 51°26.141 2°48.529 298.4 0.3 33 24.2
2012-04-19 08:28:43 51°26.141 2°48.529 298.3 0.2 2 24
2012-04-19 08:28:48 51°26.141 2°48.529 297.8 0.2 20 23.8
2012-04-19 08:28:53 51°26.141 2°48.529 297.7 0.1 32 23.9
2012-04-19 08:28:58 51°26.142 2°48.529 297.6 0.2 351 23.7
2012-04-19 08:29:03 51°26.142 2°48.529 297.1 0.2 350 23.9
2012-04-19 08:29:08 51°26.142 2°48.529 296.4 0.3 2 24.2
2012-04-19 08:29:13 51°26.143 2°48.529 295.6 0.4 -999 23.8
2012-04-19 08:29:18 51°26.143 2°48.529 295.5 0.3 6 24
2012-04-19 08:29:23 51°26.143 2°48.529 295.8 0.2 356 24.1
2012-04-19 08:29:28 51°26.144 2°48.529 295.5 0.2 6 24.4
2012-04-19 08:29:33 51°26.144 2°48.53 295.5 0.3 1 24.5
2012-04-19 08:29:38 51°26.145 2°48.53 295.3 0.3 13 24.6
2012-04-19 08:29:43 51°26.145 2°48.53 295.2 0.3 16 24.2
2012-04-19 08:29:48 51°26.145 2°48.53 295.5 0.3 11 24.1
2012-04-19 08:29:53 51°26.146 2°48.531 295.2 0.4 18 24.2
2012-04-19 08:29:58 51°26.146 2°48.531 295 0.2 21 24
2012-04-19 08:30:03 51°26.146 2°48.531 295.1 0.3 29 24
2012-04-19 08:30:08 51°26.147 2°48.531 295.7 0.2 38 24
2012-04-19 08:30:13 51°26.147 2°48.532 296.1 0.3 46 24.2
2012-04-19 08:30:18 51°26.147 2°48.532 296.1 0.3 42 24.3
2012-04-19 08:30:23 51°26.147 2°48.532 296.2 0.3 31 24
2012-04-19 08:30:28 51°26.148 2°48.533 296.7 0.3 43 24
2012-04-19 08:30:33 51°26.148 2°48.533 297.2 0.3 38 24.1
2012-04-19 08:30:38 51°26.148 2°48.533 296.9 0.4 22 24.1
2012-04-19 08:30:43 51°26.149 2°48.534 296.6 0.4 14 24.1
2012-04-19 08:30:48 51°26.149 2°48.534 296.9 0.2 18 23.7
2012-04-19 08:30:53 51°26.149 2°48.534 297.1 0.3 18 23.3
2012-04-19 08:30:58 51°26.15 2°48.535 297.6 0.4 35 23.4
2012-04-19 08:31:03 51°26.15 2°48.535 298.4 0.2 39 23.7
2012-04-19 08:31:08 51°26.151 2°48.536 299.1 0.3 37 23.6
2012-04-19 08:31:13 51°26.151 2°48.536 299.7 0.3 41 23.6
2012-04-19 08:31:18 51°26.152 2°48.536 299.7 0.5 29 23.5
2012-04-19 08:31:23 51°26.152 2°48.537 299.6 0.3 30 23.8
2012-04-19 08:31:28 51°26.152 2°48.537 300.2 0.4 35 24.1
2012-04-19 08:31:33 51°26.152 2°48.537 300.7 0.3 37 24.2
2012-04-19 08:31:38 51°26.152 2°48.538 300.3 0.3 47 24.1
2012-04-19 08:31:43 51°26.152 2°48.538 300.2 0.4 43 24.3
2012-04-19 08:31:48 51°26.152 2°48.539 300.3 0.1 68 24
2012-04-19 08:31:53 51°26.153 2°48.539 300.6 0.2 46 23.8
2012-04-19 08:31:58 51°26.153 2°48.539 301.1 0.2 42 23.7
2012-04-19 08:32:03 51°26.153 2°48.539 301 0.2 53 24
2012-04-19 08:32:08 51°26.153 2°48.54 300.8 0.2 53 23.8
2012-04-19 08:32:13 51°26.153 2°48.54 301 0.2 70 23.8
2012-04-19 08:32:18 51°26.154 2°48.541 301.3 0.2 49 23.8
2012-04-19 08:32:23 51°26.154 2°48.541 301.2 0.4 35 23.4
2012-04-19 08:32:28 51°26.154 2°48.542 301.3 0.3 34 23.3
2012-04-19 08:32:33 51°26.155 2°48.542 301.8 0.4 41 24
2012-04-19 08:32:38 51°26.155 2°48.542 301.3 0.2 64 23.9
2012-04-19 08:32:43 51°26.155 2°48.543 301.2 0.3 71 23.7
2012-04-19 08:32:47 51°26.155 2°48.543 301.3 0.1 92 23.3
2012-04-19 08:32:53 51°26.155 2°48.543 301.7 0.2 45 23.2
2012-04-19 08:32:58 51°26.155 2°48.543 301.5 0.1 44 23.2
2012-04-19 08:33:03 51°26.155 2°48.544 301.3 0.2 28 23.1
2012-04-19 08:33:07 51°26.156 2°48.544 301.2 0.4 35 23.6
2012-04-19 08:33:13 51°26.156 2°48.544 300.9 0.3 27 23.7
2012-04-19 08:33:18 51°26.156 2°48.545 299.9 0.2 19 23.8
2012-04-19 08:33:23 51°26.156 2°48.545 300.1 0.1 16 23.5
2012-04-19 08:33:28 51°26.156 2°48.545 300.1 -999 -999 23.3
2012-04-19 08:33:33 51°26.156 2°48.545 300.3 0.1 92 23.1
2012-04-19 08:33:38 51°26.157 2°48.546 300.6 0.3 30 23.1
2012-04-19 08:33:43 51°26.157 2°48.545 300.5 0.2 359 23.3
2012-04-19 08:33:48 51°26.158 2°48.546 299.1 0.4 20 23.2
2012-04-19 08:33:53 51°26.158 2°48.546 298.3 0.4 27 23.1
2012-04-19 08:33:58 51°26.158 2°48.546 299.2 0.3 40 22.8
2012-04-19 08:34:03 51°26.158 2°48.547 299.7 0.2 44 22.9
2012-04-19 08:34:08 51°26.158 2°48.547 300 0.2 44 22.7
2012-04-19 08:34:13 51°26.159 2°48.547 300.3 0.2 39 22.8
2012-04-19 08:34:18 51°26.159 2°48.548 299.9 0.3 36 22.4
2012-04-19 08:34:23 51°26.159 2°48.548 300 0.2 38 22.3
2012-04-19 08:34:28 51°26.16 2°48.549 300.3 0.5 31 22
2012-04-19 08:34:33 51°26.16 2°48.549 301.1 0.4 33 22.6
2012-04-19 08:34:38 51°26.16 2°48.55 300.8 0.3 43 23.1
2012-04-19 08:34:43 51°26.16 2°48.55 301.5 0.2 74 23.1
2012-04-19 08:34:48 51°26.161 2°48.551 301.6 0.4 49 23.1
2012-04-19 08:34:53 51°26.161 2°48.551 301.7 0.2 46 23
2012-04-19 08:34:58 51°26.161 2°48.552 302 0.2 35 22.8
2012-04-19 08:35:03 51°26.161 2°48.552 302.2 0.2 59 22.8
2012-04-19 08:35:08 51°26.161 2°48.552 302.6 0.4 45 23.1
2012-04-19 08:35:13 51°26.162 2°48.553 302.7 0.2 44 22.8
2012-04-19 08:35:18 51°26.162 2°48.553 303.1 0.2 47 22.6
2012-04-19 08:35:23 51°26.162 2°48.554 303.5 0.1 57 22.5
2012-04-19 08:35:27 51°26.162 2°48.554 303.6 0.1 118 22.4
2012-04-19 08:35:33 51°26.162 2°48.554 303.9 0.1 78 22.6
2012-04-19 08:35:38 51°26.162 2°48.555 303.8 0.3 29 22.4
2012-04-19 08:35:43 51°26.162 2°48.555 303.3 0.2 43 22.3
2012-04-19 08:35:48 51°26.163 2°48.555 302.9 0.2 48 22.4
2012-04-19 08:35:53 51°26.163 2°48.556 302.7 0.2 36 22.4
2012-04-19 08:35:58 51°26.163 2°48.556 302.5 0.3 33 22.4
2012-04-19 08:36:03 51°26.164 2°48.556 302.5 0.3 30 22.1
2012-04-19 08:36:08 51°26.164 2°48.556 302.7 0.1 33 22
2012-04-19 08:36:13 51°26.164 2°48.557 302.3 0.3 39 21.8
2012-04-19 08:36:18 51°26.164 2°48.557 302.2 -999 346 21.4
2012-04-19 08:36:23 51°26.165 2°48.557 302.6 0.2 24 21.4
2012-04-19 08:36:28 51°26.165 2°48.557 302.7 0.2 2 21.4
2012-04-19 08:36:33 51°26.165 2°48.557 302.8 0.3 10 21.5
2012-04-19 08:36:38 51°26.165 2°48.557 302.1 0.4 17 21.6
2012-04-19 08:36:43 51°26.166 2°48.558 302.5 0.2 25 22
2012-04-19 08:36:48 51°26.166 2°48.558 301.6 0.2 25 22.1
2012-04-19 08:36:53 51°26.166 2°48.558 301.2 -999 133 22.3
2012-04-19 08:36:58 51°26.166 2°48.558 301.6 0.2 41 21.9
2012-04-19 08:37:03 51°26.166 2°48.558 301.3 0.1 206 22.1
2012-04-19 08:37:08 51°26.166 2°48.558 301 0.1 48 22.1
2012-04-19 08:37:13 51°26.166 2°48.558 299.8 0.1 129 22
2012-04-19 08:37:18 51°26.167 2°48.558 299.9 0.2 53 21.9
2012-04-19 08:37:23 51°26.167 2°48.559 299.3 0.1 58 21.8
2012-04-19 08:37:27 51°26.167 2°48.559 298.6 0.2 35 22.1
2012-04-19 08:37:33 51°26.168 2°48.559 298.5 0.2 57 22.2
2012-04-19 08:37:38 51°26.168 2°48.56 297.6 0.2 23 22.4
2012-04-19 08:37:43 51°26.168 2°48.56 297 0.2 44 22.6
2012-04-19 08:37:48 51°26.168 2°48.56 296.5 0.1 69 22.6
2012-04-19 08:37:53 51°26.168 2°48.561 296.6 0.2 49 23
2012-04-19 08:37:58 51°26.168 2°48.561 296.3 0.1 26 23.2
2012-04-19 08:38:03 51°26.169 2°48.561 296.4 0.2 51 22.9
2012-04-19 08:38:08 51°26.169 2°48.562 296.7 0.2 76 22.8
2012-04-19 08:38:13 51°26.169 2°48.562 296.7 0.3 47 23
2012-04-19 08:38:18 51°26.17 2°48.562 296.5 0.2 35 23.6
2012-04-19 08:38:23 51°26.17 2°48.563 296.4 0.3 35 23.6
2012-04-19 08:38:28 51°26.17 2°48.563 296.5 0.4 39 23.8
2012-04-19 08:38:33 51°26.17 2°48.564 296.9 0.4 31 23.7
2012-04-19 08:38:38 51°26.17 2°48.564 297.5 0.3 59 24
2012-04-19 08:38:43 51°26.171 2°48.565 297.6 0.5 43 24.3
2012-04-19 08:38:48 51°26.171 2°48.565 297.7 0.2 55 24.2
2012-04-19 08:38:53 51°26.171 2°48.566 298.2 0.4 43 24.3
2012-04-19 08:38:58 51°26.171 2°48.566 298.4 0.2 60 24.3
2012-04-19 08:39:03 51°26.172 2°48.567 298.5 0.3 42 24.5
2012-04-19 08:39:08 51°26.172 2°48.567 298.6 0.4 37 24.6
2012-04-19 08:39:13 51°26.173 2°48.567 298.9 0.4 35 24.3
2012-04-19 08:39:18 51°26.173 2°48.568 298.6 0.3 40 24.4
2012-04-19 08:39:23 51°26.173 2°48.569 298.5 0.3 57 24
2012-04-19 08:39:28 51°26.174 2°48.569 298.4 0.5 35 24.2
2012-04-19 08:39:33 51°26.174 2°48.57 297.7 0.1 70 24.8
2012-04-19 08:39:38 51°26.174 2°48.57 297.3 0.2 96 24.7
2012-04-19 08:39:43 51°26.174 2°48.571 297.7 0.3 53 24.7
2012-04-19 08:39:47 51°26.175 2°48.571 298 0.2 77 24.3
2012-04-19 08:39:53 51°26.175 2°48.572 297.9 0.4 39 24.2
2012-04-19 08:39:58 51°26.175 2°48.572 297.7 0.3 53 24
2012-04-19 08:40:03 51°26.175 2°48.572 297.8 0.3 58 24.1
2012-04-19 08:40:07 51°26.176 2°48.573 298 0.3 52 24
2012-04-19 08:40:13 51°26.176 2°48.573 297.7 0.3 43 24.1
2012-04-19 08:40:18 51°26.176 2°48.574 297.1 0.3 57 24.3
2012-04-19 08:40:23 51°26.176 2°48.575 297.1 0.3 57 24.1
2012-04-19 08:40:28 51°26.177 2°48.575 297 0.3 52 24.1
2012-04-19 08:40:33 51°26.177 2°48.575 297 0.3 38 24.1
2012-04-19 08:40:38 51°26.177 2°48.576 296.7 0.3 41 24.2
2012-04-19 08:40:43 51°26.177 2°48.576 296.9 0.3 51 23.9
2012-04-19 08:40:48 51°26.178 2°48.577 297.3 0.2 55 23.6
2012-04-19 08:40:53 51°26.178 2°48.578 297.1 0.3 59 23.6
2012-04-19 08:40:58 51°26.178 2°48.578 297.4 0.4 53 24
2012-04-19 08:41:03 51°26.178 2°48.579 297.7 0.3 65 23.8
2012-04-19 08:41:08 51°26.179 2°48.579 298.5 0.4 44 23.6
2012-04-19 08:41:13 51°26.179 2°48.58 299.3 0.4 61 23.7
2012-04-19 08:41:18 51°26.179 2°48.581 299.8 0.2 86 24
2012-04-19 08:41:23 51°26.18 2°48.582 300.5 0.4 46 24.4
2012-04-19 08:41:28 51°26.18 2°48.582 300.6 0.6 42 24
2012-04-19 08:41:33 51°26.18 2°48.583 301 0.4 70 24
2012-04-19 08:41:38 51°26.181 2°48.584 302.2 0.4 69 24
2012-04-19 08:41:43 51°26.181 2°48.585 302.7 0.3 62 24
2012-04-19 08:41:48 51°26.181 2°48.585 302.8 0.4 52 23.8
2012-04-19 08:41:53 51°26.181 2°48.586 303.1 0.5 35 23.9
2012-04-19 08:41:58 51°26.182 2°48.587 303.3 0.5 49 23.9
2012-04-19 08:42:03 51°26.182 2°48.588 303.5 0.5 54 23.7
2012-04-19 08:42:08 51°26.182 2°48.588 303.9 0.3 69 23.6
2012-04-19 08:42:13 51°26.182 2°48.589 303.6 0.4 57 23.6
2012-04-19 08:42:18 51°26.182 2°48.589 303.5 0.3 65 23.4
2012-04-19 08:42:23 51°26.183 2°48.59 303.4 0.3 50 23.5
2012-04-19 08:42:28 51°26.183 2°48.591 303 0.3 53 23.5
2012-04-19 08:42:33 51°26.183 2°48.591 303.1 0.4 70 23.8
2012-04-19 08:42:38 51°26.183 2°48.592 303.3 0.4 61 24
2012-04-19 08:42:43 51°26.183 2°48.593 303.6 0.5 55 24
2012-04-19 08:42:47 51°26.183 2°48.593 304 0.4 60 24
2012-04-19 08:42:53 51°26.183 2°48.594 304.3 0.3 74 23.5
2012-04-19 08:42:58 51°26.184 2°48.594 304.8 0.4 72 22.9
2012-04-19 08:43:03 51°26.184 2°48.595 305 0.3 70 23
2012-04-19 08:43:08 51°26.184 2°48.596 305.1 0.3 60 23.1
2012-04-19 08:43:13 51°26.184 2°48.596 305.1 0.3 64 22.9
2012-04-19 08:43:18 51°26.184 2°48.597 305 0.2 66 23
2012-04-19 08:43:23 51°26.184 2°48.597 305.5 0.2 85 22.9
2012-04-19 08:43:28 51°26.185 2°48.598 305.1 0.3 64 23.1
2012-04-19 08:43:33 51°26.185 2°48.598 304.8 0.4 33 22.9
2012-04-19 08:43:38 51°26.186 2°48.599 304.2 0.4 23 23.1
2012-04-19 08:43:43 51°26.186 2°48.599 303.8 0.2 39 23.2
2012-04-19 08:43:48 51°26.186 2°48.599 303.6 0.2 37 23.2
2012-04-19 08:43:53 51°26.186 2°48.599 303.5 0.2 9 22.9
2012-04-19 08:43:58 51°26.186 2°48.6 303.1 0.4 26 23
2012-04-19 08:44:03 51°26.186 2°48.6 302.6 0.2 25 23.1
2012-04-19 08:44:08 51°26.187 2°48.6 302.3 0.2 50 23.3
2012-04-19 08:44:13 51°26.187 2°48.6 301.9 -999 47 23.3
2012-04-19 08:44:18 51°26.187 2°48.601 301.5 0.3 26 23.1
2012-04-19 08:44:23 51°26.187 2°48.601 300.9 0.2 359 23.7
2012-04-19 08:44:27 51°26.188 2°48.601 300.2 0.3 20 24
2012-04-19 08:44:33 51°26.188 2°48.601 299.3 0.3 5 24.1
2012-04-19 08:44:38 51°26.188 2°48.602 298.6 0.3 7 23.9
2012-04-19 08:44:43 51°26.189 2°48.602 298.1 0.3 19 23.9
2012-04-19 08:44:47 51°26.189 2°48.602 297.6 0.2 32 24.1
2012-04-19 08:44:53 51°26.189 2°48.603 297.2 0.3 43 23.9
2012-04-19 08:44:58 51°26.19 2°48.603 297.7 0.2 28 23.8
2012-04-19 08:45:03 51°26.19 2°48.603 298.1 0.3 25 23.5
2012-04-19 08:45:08 51°26.19 2°48.603 297.5 0.2 19 23.7
2012-04-19 08:45:13 51°26.191 2°48.604 297.2 0.3 9 23.7
2012-04-19 08:45:18 51°26.191 2°48.604 297.1 0.3 19 23.9
2012-04-19 08:45:23 51°26.191 2°48.604 297.5 0.2 37 23.9
2012-04-19 08:45:28 51°26.192 2°48.605 297.3 0.3 25 23.9
2012-04-19 08:45:33 51°26.192 2°48.605 297.2 0.2 21 24.3
2012-04-19 08:45:38 51°26.193 2°48.605 297.1 0.4 12 24.7
2012-04-19 08:45:43 51°26.193 2°48.605 296.8 0.3 11 24.7
2012-04-19 08:45:48 51°26.193 2°48.605 296.3 0.3 29 24.5
2012-04-19 08:45:53 51°26.193 2°48.606 296.9 0.2 26 24.4
2012-04-19 08:45:58 51°26.194 2°48.606 296.9 0.2 34 24.3
2012-04-19 08:46:03 51°26.194 2°48.606 296.8 0.4 16 24.2
2012-04-19 08:46:08 51°26.195 2°48.606 295.8 0.1 11 24.5
2012-04-19 08:46:13 51°26.195 2°48.606 295.3 0.3 4 24.7
2012-04-19 08:46:18 51°26.196 2°48.606 294.1 0.1 20 24.7
2012-04-19 08:46:23 51°26.196 2°48.607 293 0.3 24 24.3
2012-04-19 08:46:28 51°26.197 2°48.607 292.8 0.4 23 24.7
2012-04-19 08:46:33 51°26.197 2°48.607 292.9 0.4 12 24.8
2012-04-19 08:46:38 51°26.198 2°48.607 292.3 0.4 11 24.6
2012-04-19 08:46:43 51°26.198 2°48.608 292.1 0.4 8 24.9
2012-04-19 08:46:47 51°26.198 2°48.608 291.9 0.3 11 24.8
2012-04-19 08:46:53 51°26.199 2°48.608 291.9 0.4 8 24.6
2012-04-19 08:46:58 51°26.199 2°48.608 291.7 0.3 29 24.6
2012-04-19 08:47:03 51°26.2 2°48.608 291.5 0.3 7 24.6
2012-04-19 08:47:08 51°26.2 2°48.609 290.9 0.4 14 24.6
2012-04-19 08:47:13 51°26.201 2°48.609 290.7 0.3 21 24.6
2012-04-19 08:47:18 51°26.201 2°48.609 290.5 0.4 36 24.2
2012-04-19 08:47:23 51°26.202 2°48.61 290.1 0.4 37 23.8
2012-04-19 08:47:28 51°26.203 2°48.61 290.5 0.7 17 24
2012-04-19 08:47:33 51°26.203 2°48.611 290.4 0.4 21 24.7
2012-04-19 08:47:38 51°26.204 2°48.611 289.8 0.5 31 24.9
2012-04-19 08:47:43 51°26.204 2°48.612 290.2 0.4 29 24.9
2012-04-19 08:47:48 51°26.205 2°48.612 291.3 0.5 23 24.9
2012-04-19 08:47:53 51°26.205 2°48.613 291.7 0.3 39 24.7
2012-04-19 08:47:58 51°26.206 2°48.614 291.9 0.5 32 24.7
2012-04-19 08:48:03 51°26.207 2°48.614 292 0.4 31 24.6
2012-04-19 08:48:08 51°26.207 2°48.615 291.4 0.4 39 24.9
2012-04-19 08:48:13 51°26.208 2°48.615 291.2 0.4 38 24.9
2012-04-19 08:48:18 51°26.208 2°48.615 291 0.5 20 25
2012-04-19 08:48:23 51°26.208 2°48.616 290.7 0.5 23 24.8
2012-04-19 08:48:28 51°26.209 2°48.617 290.4 0.4 36 24.9
2012-04-19 08:48:33 51°26.21 2°48.617 290.7 0.6 23 24.9
2012-04-19 08:48:38 51°26.21 2°48.618 290.9 0.5 29 24.8
2012-04-19 08:48:43 51°26.21 2°48.618 291.8 0.5 45 24.5
2012-04-19 08:48:48 51°26.211 2°48.619 292.5 0.4 46 24.8
2012-04-19 08:48:53 51°26.211 2°48.62 293.3 0.3 75 25
2012-04-19 08:48:58 51°26.211 2°48.62 294.2 0.5 46 25
2012-04-19 08:49:03 51°26.212 2°48.621 294.4 0.4 33 25.3
2012-04-19 08:49:07 51°26.213 2°48.621 294.2 0.5 33 25.3
2012-04-19 08:49:13 51°26.213 2°48.622 294.5 0.4 29 25.1
2012-04-19 08:49:18 51°26.214 2°48.623 294.9 0.6 26 24.9
2012-04-19 08:49:23 51°26.214 2°48.623 295.5 0.5 30 24.4
2012-04-19 08:49:27 51°26.215 2°48.624 296.2 0.6 30 24.4
2012-04-19 08:49:33 51°26.215 2°48.625 297.1 0.5 36 24.3
2012-04-19 08:49:38 51°26.216 2°48.625 297.7 0.4 38 24.4
2012-04-19 08:49:43 51°26.216 2°48.626 298.3 0.4 52 24.1
2012-04-19 08:49:48 51°26.216 2°48.627 298.9 0.5 40 23.9
2012-04-19 08:49:53 51°26.217 2°48.628 299.4 0.5 40 23.6
2012-04-19 08:49:58 51°26.217 2°48.629 299.8 0.5 43 23.6
2012-04-19 08:50:03 51°26.218 2°48.63 301.7 0.5 53 23.6
2012-04-19 08:50:08 51°26.218 2°48.63 302.4 0.5 43 23.8
2012-04-19 08:50:13 51°26.218 2°48.631 302.9 0.4 53 23.9
2012-04-19 08:50:18 51°26.219 2°48.632 302.9 0.4 63 24.1
2012-04-19 08:50:23 51°26.219 2°48.633 302.4 0.3 79 24.1
2012-04-19 08:50:28 51°26.219 2°48.633 302.1 0.4 45 24.2
2012-04-19 08:50:33 51°26.219 2°48.634 302.1 0.4 60 24.3
2012-04-19 08:50:38 51°26.22 2°48.635 302 0.5 46 24.4
2012-04-19 08:50:43 51°26.22 2°48.635 301.4 0.4 46 24.5
2012-04-19 08:50:48 51°26.22 2°48.636 301 0.4 62 24.5
2012-04-19 08:50:53 51°26.22 2°48.636 300.9 0.3 47 24.3
2012-04-19 08:50:58 51°26.221 2°48.637 300.6 0.5 35 23.8
2012-04-19 08:51:03 51°26.221 2°48.638 300.6 0.2 43 23.6
2012-04-19 08:51:07 51°26.222 2°48.638 300.7 0.4 28 23.3
2012-04-19 08:51:13 51°26.222 2°48.639 300.1 0.4 48 23
2012-04-19 08:51:18 51°26.223 2°48.64 300.4 0.4 46 22.6
2012-04-19 08:51:23 51°26.223 2°48.64 301.3 0.4 40 22.7
2012-04-19 08:51:28 51°26.224 2°48.641 302.1 0.6 43 23
2012-04-19 08:51:33 51°26.224 2°48.642 302.2 0.4 42 22.9
2012-04-19 08:51:38 51°26.224 2°48.643 302.8 0.4 59 22.5
2012-04-19 08:51:43 51°26.224 2°48.643 303.7 0.4 50 22.3
2012-04-19 08:51:48 51°26.225 2°48.644 304 0.3 36 22.3
2012-04-19 08:51:53 51°26.225 2°48.644 303.7 0.5 33 22.4
2012-04-19 08:51:58 51°26.226 2°48.645 303.2 0.4 43 22.2
2012-04-19 08:52:03 51°26.226 2°48.646 303.1 0.4 45 21.4
2012-04-19 08:52:08 51°26.226 2°48.647 304.4 0.5 35 21.2
2012-04-19 08:52:13 51°26.227 2°48.648 304.5 0.5 61 21.3
2012-04-19 08:52:18 51°26.227 2°48.648 304.4 0.5 60 21.5
2012-04-19 08:52:23 51°26.228 2°48.649 304.2 0.4 43 21.4
2012-04-19 08:52:28 51°26.228 2°48.65 303.1 0.5 42 21.7
2012-04-19 08:52:33 51°26.228 2°48.651 302.7 0.5 53 21.5
2012-04-19 08:52:38 51°26.228 2°48.651 301.9 0.4 59 21.7
2012-04-19 08:52:43 51°26.228 2°48.652 301.8 0.4 65 21.4
2012-04-19 08:52:48 51°26.229 2°48.653 301.7 0.4 55 21.2
2012-04-19 08:52:53 51°26.229 2°48.654 301.8 0.5 57 21.6
2012-04-19 08:52:58 51°26.229 2°48.655 302 0.4 63 21.7
2012-04-19 08:53:03 51°26.23 2°48.655 301.6 0.4 66 21.6
2012-04-19 08:53:08 51°26.23 2°48.656 301.7 0.4 44 21.7
2012-04-19 08:53:13 51°26.23 2°48.657 301.3 0.4 56 21.9
2012-04-19 08:53:18 51°26.231 2°48.657 300.2 0.5 45 22.1
2012-04-19 08:53:23 51°26.231 2°48.658 299.2 0.3 48 21.9
2012-04-19 08:53:27 51°26.231 2°48.659 299.1 0.4 50 22
2012-04-19 08:53:33 51°26.232 2°48.66 298.9 0.5 53 21.7
2012-04-19 08:53:38 51°26.232 2°48.66 298.7 0.5 39 21.5
2012-04-19 08:53:43 51°26.233 2°48.661 299 0.5 48 21.9
2012-04-19 08:53:48 51°26.233 2°48.662 298.1 0.4 45 22.4
2012-04-19 08:53:53 51°26.234 2°48.663 297.7 0.4 47 22.4
2012-04-19 08:53:58 51°26.234 2°48.663 297.8 0.3 60 22.6
2012-04-19 08:54:03 51°26.234 2°48.664 298 0.4 44 22.7
2012-04-19 08:54:08 51°26.235 2°48.665 297.5 0.5 34 23.2
2012-04-19 08:54:13 51°26.235 2°48.666 296.9 0.4 41 23.7
2012-04-19 08:54:18 51°26.236 2°48.666 296.7 0.4 41 23.6
2012-04-19 08:54:23 51°26.236 2°48.667 296.4 0.4 65 23.4
2012-04-19 08:54:28 51°26.236 2°48.668 296.9 0.5 44 23.4
2012-04-19 08:54:33 51°26.237 2°48.669 297.2 0.3 66 23.5
2012-04-19 08:54:38 51°26.237 2°48.669 296.5 0.4 37 23.8
2012-04-19 08:54:43 51°26.237 2°48.67 296.2 0.4 41 24
2012-04-19 08:54:48 51°26.238 2°48.67 296 0.4 34 24.1
2012-04-19 08:54:53 51°26.238 2°48.671 296.2 0.3 63 24
2012-04-19 08:54:58 51°26.239 2°48.672 296.3 0.5 47 24.1
2012-04-19 08:55:03 51°26.239 2°48.672 296.2 0.3 54 24.3
2012-04-19 08:55:08 51°26.24 2°48.673 295.7 0.6 32 24.2
2012-04-19 08:55:13 51°26.241 2°48.674 295.5 0.6 34 24.3
2012-04-19 08:55:18 51°26.241 2°48.675 294.8 0.7 35 24.6
2012-04-19 08:55:23 51°26.241 2°48.675 294.6 0.4 40 24.7
2012-04-19 08:55:28 51°26.242 2°48.676 295 0.5 44 24.8
2012-04-19 08:55:33 51°26.242 2°48.677 295 0.5 40 24.6
2012-04-19 08:55:38 51°26.243 2°48.678 295.2 0.6 42 25.2
2012-04-19 08:55:43 51°26.243 2°48.678 295 0.4 53 25
2012-04-19 08:55:48 51°26.244 2°48.679 295.1 0.5 47 25.3
2012-04-19 08:55:54 51°26.244 2°48.68 295.3 0.6 41 25.5
2012-04-19 08:55:58 51°26.245 2°48.681 295.1 0.5 39 25.5
2012-04-19 08:56:03 51°26.245 2°48.682 294.8 0.6 46 25.5
2012-04-19 08:56:08 51°26.246 2°48.682 295.5 0.5 48 25.2
2012-04-19 08:56:13 51°26.247 2°48.683 295.9 0.6 35 25
2012-04-19 08:56:18 51°26.247 2°48.684 296.5 0.7 39 25.4
2012-04-19 08:56:23 51°26.248 2°48.685 296 0.8 35 25.5
2012-04-19 08:56:28 51°26.248 2°48.686 296.1 0.5 41 25
2012-04-19 08:56:33 51°26.249 2°48.687 296.4 0.9 37 25.6
2012-04-19 08:56:39 51°26.249 2°48.688 296.1 0.5 43 25.8
2012-04-19 08:56:43 51°26.25 2°48.689 295.8 0.6 46 25.7
2012-04-19 08:56:48 51°26.25 2°48.689 296.1 0.6 46 25.7
2012-04-19 08:56:53 51°26.251 2°48.69 295.9 0.4 41 25.6
2012-04-19 08:56:58 51°26.251 2°48.691 295.5 0.5 50 25.6
2012-04-19 08:57:03 51°26.251 2°48.692 295.1 0.5 47 25.2
2012-04-19 08:57:08 51°26.252 2°48.693 294.9 0.5 50 25.4
2012-04-19 08:57:13 51°26.252 2°48.694 295.1 0.6 42 25.6
2012-04-19 08:57:18 51°26.253 2°48.695 295.1 0.5 50 25.6
2012-04-19 08:57:23 51°26.253 2°48.696 295.1 0.5 55 25.5
2012-04-19 08:57:28 51°26.253 2°48.696 295.5 0.5 57 25.2
2012-04-19 08:57:33 51°26.254 2°48.698 295.9 0.5 58 25.1
2012-04-19 08:57:38 51°26.254 2°48.698 296.1 0.5 55 24.7
2012-04-19 08:57:43 51°26.255 2°48.699 296.2 0.5 52 24.8
2012-04-19 08:57:47 51°26.255 2°48.7 296.4 0.5 44 25.3
2012-04-19 08:57:53 51°26.256 2°48.701 296.6 0.7 37 25.4
2012-04-19 08:57:58 51°26.256 2°48.702 297.2 0.6 47 25.5
2012-04-19 08:58:03 51°26.257 2°48.703 297.5 0.5 59 25.4
2012-04-19 08:58:07 51°26.257 2°48.704 297.9 0.6 61 25.2
2012-04-19 08:58:13 51°26.258 2°48.705 298 0.5 65 24.9
2012-04-19 08:58:18 51°26.258 2°48.707 298.8 0.6 55 24.9
2012-04-19 08:58:23 51°26.259 2°48.708 299.2 0.5 52 24.9
2012-04-19 08:58:28 51°26.259 2°48.709 299.1 0.6 50 24.6
2012-04-19 08:58:33 51°26.26 2°48.71 299.7 0.7 59 24.7
2012-04-19 08:58:38 51°26.26 2°48.711 300.1 0.5 59 24.7
2012-04-19 08:58:43 51°26.261 2°48.712 300.6 0.7 51 24.8
2012-04-19 08:58:48 51°26.262 2°48.713 300.2 0.6 46 24.8
2012-04-19 08:58:53 51°26.263 2°48.714 299.8 0.7 41 24.5
2012-04-19 08:58:58 51°26.263 2°48.715 299.8 0.6 45 24.3
2012-04-19 08:59:03 51°26.264 2°48.716 299.7 0.5 49 23.9
2012-04-19 08:59:08 51°26.264 2°48.717 299.6 0.5 58 23.8
2012-04-19 08:59:13 51°26.265 2°48.718 299.8 0.6 48 23.9
2012-04-19 08:59:18 51°26.265 2°48.719 300.2 0.7 45 24.4
2012-04-19 08:59:23 51°26.266 2°48.72 299.9 0.6 43 24.3
2012-04-19 08:59:28 51°26.267 2°48.721 299.9 0.6 41 24.1
2012-04-19 08:59:33 51°26.267 2°48.722 300.2 0.6 54 23.9
2012-04-19 08:59:38 51°26.268 2°48.723 300.5 0.6 48 23.9
2012-04-19 08:59:43 51°26.268 2°48.724 300.6 0.5 56 23.6
2012-04-19 08:59:48 51°26.268 2°48.725 300.5 0.5 62 23.3
2012-04-19 08:59:53 51°26.269 2°48.726 300.7 0.6 61 23.2
2012-04-19 08:59:58 51°26.27 2°48.728 301 0.6 56 22.8
2012-04-19 09:00:03 51°26.27 2°48.729 301.5 0.6 55 22.7
2012-04-19 09:00:08 51°26.271 2°48.729 301.4 0.6 46 22.7
2012-04-19 09:00:13 51°26.271 2°48.731 301.3 0.5 60 22.5
2012-04-19 09:00:18 51°26.271 2°48.732 301.3 0.5 65 22.5
2012-04-19 09:00:23 51°26.272 2°48.733 300.6 0.7 49 22.6
2012-04-19 09:00:27 51°26.272 2°48.734 300.3 0.6 60 22.6
2012-04-19 09:00:33 51°26.273 2°48.735 300.5 0.7 52 22.4
2012-04-19 09:00:38 51°26.273 2°48.737 300.4 0.6 72 21.9
2012-04-19 09:00:43 51°26.273 2°48.738 300.6 0.6 74 22
2012-04-19 09:00:48 51°26.274 2°48.739 300.9 0.6 69 22.1
2012-04-19 09:00:53 51°26.275 2°48.74 301.2 0.6 54 21.9
2012-04-19 09:00:58 51°26.275 2°48.741 300.9 0.7 50 21.8
2012-04-19 09:01:03 51°26.276 2°48.742 301.2 0.6 51 21.9
2012-04-19 09:01:08 51°26.276 2°48.744 301.3 0.7 56 21.7
2012-04-19 09:01:13 51°26.276 2°48.745 301.3 0.6 59 21.9
2012-04-19 09:01:18 51°26.277 2°48.746 301.5 0.7 59 22.5
2012-04-19 09:01:23 51°26.277 2°48.747 301.3 0.5 69 22.7
2012-04-19 09:01:28 51°26.278 2°48.748 301.7 0.6 64 22.1
2012-04-19 09:01:33 51°26.278 2°48.749 302.1 0.7 58 22.6
2012-04-19 09:01:38 51°26.279 2°48.75 302.3 0.6 55 23.1
2012-04-19 09:01:43 51°26.279 2°48.751 302 0.6 51 23.3
2012-04-19 09:01:48 51°26.28 2°48.753 302 0.6 57 23.7
2012-04-19 09:01:53 51°26.28 2°48.754 301.8 0.6 59 24
2012-04-19 09:01:58 51°26.281 2°48.755 302 0.7 40 24.3
2012-04-19 09:02:03 51°26.281 2°48.755 301.7 0.5 42 24.3
2012-04-19 09:02:08 51°26.282 2°48.757 301.1 0.7 46 24.5
2012-04-19 09:02:13 51°26.282 2°48.758 300.4 0.6 55 24.6
2012-04-19 09:02:18 51°26.283 2°48.759 299.8 0.5 64 24.4
2012-04-19 09:02:23 51°26.283 2°48.76 299.8 0.6 45 24.5
2012-04-19 09:02:27 51°26.284 2°48.76 299.3 0.4 51 24.6
2012-04-19 09:02:33 51°26.284 2°48.762 299 0.6 48 24.5
2012-04-19 09:02:38 51°26.285 2°48.763 298.7 0.5 57 24.7
2012-04-19 09:02:43 51°26.285 2°48.764 298.4 0.5 62 24.8
2012-04-19 09:02:48 51°26.286 2°48.765 298.2 0.6 55 24.6
2012-04-19 09:02:54 51°26.287 2°48.766 298.3 0.6 53 24.8
2012-04-19 09:02:58 51°26.287 2°48.767 297.8 0.6 48 24.6
2012-04-19 09:03:03 51°26.288 2°48.767 297.8 0.5 64 24.9
2012-04-19 09:03:08 51°26.288 2°48.768 297.8 0.5 51 24.9
2012-04-19 09:03:13 51°26.289 2°48.769 297.3 0.5 50 24.6
2012-04-19 09:03:18 51°26.289 2°48.771 297.4 0.7 59 24.8
2012-04-19 09:03:23 51°26.29 2°48.771 297.6 0.6 59 25.2
2012-04-19 09:03:28 51°26.29 2°48.773 297.7 0.6 62 25.5
2012-04-19 09:03:33 51°26.291 2°48.774 298 0.6 47 25.7
2012-04-19 09:03:38 51°26.292 2°48.774 297.7 0.6 52 25.7
2012-04-19 09:03:43 51°26.292 2°48.776 297.5 0.5 48 25
2012-04-19 09:03:48 51°26.292 2°48.777 298 0.5 55 24.9
2012-04-19 09:03:53 51°26.293 2°48.778 298.6 0.6 54 24.8
2012-04-19 09:03:58 51°26.293 2°48.779 298.9 0.6 53 24.5
2012-04-19 09:04:03 51°26.294 2°48.78 299.4 0.6 51 24.2
2012-04-19 09:04:08 51°26.295 2°48.781 299.4 0.7 39 24.5
2012-04-19 09:04:13 51°26.296 2°48.782 299.1 0.9 33 25.3
2012-04-19 09:04:18 51°26.296 2°48.783 298.3 0.6 45 25.7
2012-04-19 09:04:23 51°26.296 2°48.784 298.4 0.7 51 25.6
2012-04-19 09:04:28 51°26.296 2°48.785 298.5 0.5 69 25.4
2012-04-19 09:04:33 51°26.297 2°48.786 298.1 0.5 63 24.9
2012-04-19 09:04:38 51°26.298 2°48.788 298.3 0.6 56 24.5
2012-04-19 09:04:43 51°26.298 2°48.789 298.4 0.7 54 24.7
2012-04-19 09:04:48 51°26.299 2°48.79 298.8 0.6 54 24.5
2012-04-19 09:04:53 51°26.3 2°48.792 299.5 0.8 45 24.6
2012-04-19 09:04:58 51°26.3 2°48.793 299.8 0.7 53 24.7
2012-04-19 09:05:03 51°26.301 2°48.794 299.6 0.6 60 24.6
2012-04-19 09:05:08 51°26.301 2°48.795 299.6 0.7 64 24.7
2012-04-19 09:05:13 51°26.302 2°48.797 299.6 0.9 58 24.9
2012-04-19 09:05:18 51°26.303 2°48.798 299.6 0.9 58 24.6
2012-04-19 09:05:23 51°26.304 2°48.8 299.9 0.8 53 24.1
2012-04-19 09:05:27 51°26.304 2°48.801 300.9 0.7 67 23.8
2012-04-19 09:05:33 51°26.304 2°48.803 301.7 0.8 67 23.9
2012-04-19 09:05:38 51°26.305 2°48.804 301.9 0.8 54 23.9
2012-04-19 09:05:43 51°26.305 2°48.805 302 0.7 62 24
2012-04-19 09:05:48 51°26.306 2°48.807 302.7 0.7 74 24
2012-04-19 09:05:53 51°26.306 2°48.808 303.2 0.7 63 23.8
2012-04-19 09:05:58 51°26.307 2°48.81 303 0.7 68 23.7
2012-04-19 09:06:03 51°26.307 2°48.811 302.6 0.7 69 23.3
2012-04-19 09:06:08 51°26.307 2°48.812 302.6 0.7 59 23.1
2012-04-19 09:06:13 51°26.308 2°48.813 302.6 0.6 60 22.7
2012-04-19 09:06:18 51°26.308 2°48.815 302.5 0.7 63 22.6
2012-04-19 09:06:23 51°26.309 2°48.816 302.1 1 54 22.9
2012-04-19 09:06:28 51°26.31 2°48.818 302 0.8 66 22.6
2012-04-19 09:06:33 51°26.31 2°48.819 302.7 0.7 56 21.7
2012-04-19 09:06:38 51°26.311 2°48.82 304.1 0.8 49 21.5
2012-04-19 09:06:43 51°26.311 2°48.822 304.2 0.9 60 22
2012-04-19 09:06:47 51°26.312 2°48.823 303.9 0.9 57 22
2012-04-19 09:06:53 51°26.312 2°48.825 303.1 0.8 56 21.8
2012-04-19 09:06:58 51°26.312 2°48.827 303.5 0.7 71 21.4
2012-04-19 09:07:03 51°26.313 2°48.828 304 0.9 64 21.5
2012-04-19 09:07:08 51°26.313 2°48.83 304.4 0.8 64 21.9
2012-04-19 09:07:13 51°26.313 2°48.831 304.3 0.7 74 22.4
2012-04-19 09:07:18 51°26.314 2°48.833 304.9 0.9 63 22.5
2012-04-19 09:07:23 51°26.314 2°48.834 305.3 0.7 73 22.8
2012-04-19 09:07:28 51°26.315 2°48.836 305.9 0.7 72 22.9
2012-04-19 09:07:33 51°26.316 2°48.838 306.4 0.8 65 22.8
2012-04-19 09:07:38 51°26.316 2°48.839 306.8 0.8 67 23
2012-04-19 09:07:43 51°26.316 2°48.841 307.4 0.8 65 23.5
2012-04-19 09:07:47 51°26.317 2°48.842 307.8 0.7 69 23.9
2012-04-19 09:07:53 51°26.317 2°48.844 308.5 0.8 66 24.3
2012-04-19 09:07:58 51°26.317 2°48.846 308.6 0.8 70 24.5
2012-04-19 09:08:03 51°26.318 2°48.848 309.3 0.8 71 24.4
2012-04-19 09:08:08 51°26.318 2°48.85 309.9 0.8 71 24.6
2012-04-19 09:08:13 51°26.319 2°48.851 310.2 0.8 66 24.7
2012-04-19 09:08:18 51°26.319 2°48.853 310.8 1 59 25.2
2012-04-19 09:08:23 51°26.32 2°48.854 311.4 0.9 59 25.2
2012-04-19 09:08:28 51°26.32 2°48.856 311.7 0.7 73 25
2012-04-19 09:08:33 51°26.32 2°48.857 312.2 0.7 66 24.9
2012-04-19 09:08:38 51°26.321 2°48.859 312.6 0.8 54 24.6
2012-04-19 09:08:43 51°26.322 2°48.86 312.8 0.8 59 24.7
2012-04-19 09:08:48 51°26.322 2°48.862 313.6 0.7 65 25
2012-04-19 09:08:53 51°26.322 2°48.864 314 0.8 73 25.8
2012-04-19 09:08:58 51°26.323 2°48.865 314.4 0.7 75 25.5
2012-04-19 09:09:03 51°26.324 2°48.867 315.1 0.8 69 25.4
2012-04-19 09:09:07 51°26.324 2°48.868 315.9 0.6 66 25.1
2012-04-19 09:09:13 51°26.325 2°48.87 315.7 0.8 67 24.9
2012-04-19 09:09:18 51°26.326 2°48.872 315.2 0.7 61 25.2
2012-04-19 09:09:23 51°26.327 2°48.873 314.2 0.8 56 25.4
2012-04-19 09:09:28 51°26.327 2°48.874 313.8 0.6 62 25.3
2012-04-19 09:09:33 51°26.327 2°48.876 313.6 0.7 64 24.8
2012-04-19 09:09:38 51°26.327 2°48.877 312.9 0.6 62 24.7
2012-04-19 09:09:43 51°26.328 2°48.878 312.2 0.8 52 24.8
2012-04-19 09:09:48 51°26.329 2°48.879 311.5 0.6 57 24.8
2012-04-19 09:09:53 51°26.329 2°48.881 310.7 0.6 48 24.6
2012-04-19 09:09:58 51°26.33 2°48.882 310.2 0.8 47 24.6
2012-04-19 09:10:03 51°26.33 2°48.883 310 0.8 52 25.2
2012-04-19 09:10:08 51°26.331 2°48.885 309.1 0.9 54 25.3
2012-04-19 09:10:13 51°26.332 2°48.886 308.1 0.8 47 24.8
2012-04-19 09:10:18 51°26.333 2°48.887 307.1 0.6 50 24.4
2012-04-19 09:10:23 51°26.333 2°48.889 306.4 0.7 48 24.8
2012-04-19 09:10:28 51°26.334 2°48.89 306 0.8 42 24.6
2012-04-19 09:10:33 51°26.335 2°48.891 305.2 0.9 41 24.7
2012-04-19 09:10:38 51°26.336 2°48.893 304.2 0.6 49 24.9
2012-04-19 09:10:43 51°26.336 2°48.894 303.2 0.8 49 24.7
2012-04-19 09:10:48 51°26.337 2°48.895 302.2 0.8 48 24.5
2012-04-19 09:10:53 51°26.338 2°48.896 301.3 0.7 50 24.4
2012-04-19 09:10:58 51°26.338 2°48.898 300.9 0.7 54 24.1
2012-04-19 09:11:03 51°26.339 2°48.899 300.4 0.7 61 23.6
2012-04-19 09:11:08 51°26.34 2°48.9 299.1 0.7 58 23.1
2012-04-19 09:11:13 51°26.341 2°48.902 299.1 0.8 44 23
2012-04-19 09:11:18 51°26.341 2°48.903 298.7 0.8 46 22.9
2012-04-19 09:11:23 51°26.342 2°48.904 297.1 0.6 55 22.4
2012-04-19 09:11:27 51°26.343 2°48.905 297 0.9 41 22.1
2012-04-19 09:11:33 51°26.343 2°48.907 297.1 0.8 49 22
2012-04-19 09:11:38 51°26.344 2°48.909 296.3 1 45 22.3
2012-04-19 09:11:43 51°26.345 2°48.91 296.9 0.8 54 22.3
2012-04-19 09:11:48 51°26.345 2°48.912 296.9 0.8 64 21.7
2012-04-19 09:11:53 51°26.346 2°48.913 297.4 0.9 55 21.4
2012-04-19 09:11:58 51°26.347 2°48.915 297.7 1.2 45 21.3
2012-04-19 09:12:03 51°26.347 2°48.917 298 0.9 58 21
2012-04-19 09:12:08 51°26.348 2°48.918 298.9 0.7 67 20.6
2012-04-19 09:12:13 51°26.349 2°48.92 299.3 0.9 60 20.3
2012-04-19 09:12:18 51°26.349 2°48.922 299.1 1 62 20.4
2012-04-19 09:12:23 51°26.35 2°48.924 300 1 57 20.9
2012-04-19 09:12:28 51°26.351 2°48.925 300.3 0.9 62 20.6
2012-04-19 09:12:33 51°26.351 2°48.927 300.9 0.9 65 20.8
2012-04-19 09:12:38 51°26.352 2°48.929 301.3 0.7 74 21.3
2012-04-19 09:12:43 51°26.352 2°48.931 301.5 0.9 66 21.4
2012-04-19 09:12:48 51°26.353 2°48.932 301.9 0.8 64 21.2
2012-04-19 09:12:53 51°26.354 2°48.934 302.6 0.9 57 21.2
2012-04-19 09:12:58 51°26.354 2°48.936 302.8 0.7 64 21.8
2012-04-19 09:13:03 51°26.355 2°48.938 302.5 0.8 66 21.4
2012-04-19 09:13:08 51°26.355 2°48.94 303 0.9 60 21.5
2012-04-19 09:13:13 51°26.355 2°48.942 304.5 0.8 65 21.5
2012-04-19 09:13:18 51°26.356 2°48.943 306.3 1 61 21.8
2012-04-19 09:13:23 51°26.357 2°48.945 306.4 1 54 22.1
2012-04-19 09:13:28 51°26.357 2°48.946 306.8 0.8 59 22.5
2012-04-19 09:13:33 51°26.358 2°48.948 306.6 0.8 55 22.7
2012-04-19 09:13:38 51°26.359 2°48.95 306.6 0.8 56 22.6
2012-04-19 09:13:43 51°26.359 2°48.952 306.5 0.9 59 23
2012-04-19 09:13:47 51°26.36 2°48.953 306.2 1 55 23.4
2012-04-19 09:13:53 51°26.361 2°48.955 305.7 1 58 23.9
2012-04-19 09:13:58 51°26.361 2°48.957 305.9 1.2 49 24.5
2012-04-19 09:14:03 51°26.362 2°48.958 305.8 0.9 57 24.5
2012-04-19 09:14:08 51°26.363 2°48.96 306.7 0.8 59 24.5
2012-04-19 09:14:13 51°26.363 2°48.962 307.4 0.9 58 24.5
2012-04-19 09:14:18 51°26.364 2°48.963 307.8 1 55 24.4
2012-04-19 09:14:23 51°26.365 2°48.965 307.8 0.9 56 24.7
2012-04-19 09:14:28 51°26.365 2°48.967 307.9 0.8 63 24.8
2012-04-19 09:14:33 51°26.366 2°48.969 308.1 1 52 24.8
2012-04-19 09:14:38 51°26.367 2°48.97 307.8 1 52 24.6
2012-04-19 09:14:43 51°26.368 2°48.972 307.4 1 50 24.5
2012-04-19 09:14:48 51°26.368 2°48.974 307 0.9 58 24.8
2012-04-19 09:14:53 51°26.369 2°48.975 307.1 0.8 68 24.9
2012-04-19 09:14:58 51°26.37 2°48.977 307.1 0.9 58 24.8
2012-04-19 09:15:03 51°26.37 2°48.979 307.1 1 54 24.8
2012-04-19 09:15:08 51°26.371 2°48.981 306.8 1.1 51 24.9
2012-04-19 09:15:13 51°26.372 2°48.982 306.2 1 59 24.9
2012-04-19 09:15:18 51°26.372 2°48.984 306 0.8 68 24.8
2012-04-19 09:15:23 51°26.373 2°48.986 306.2 0.9 58 24.8
2012-04-19 09:15:28 51°26.374 2°48.987 306.2 1 61 25.1
2012-04-19 09:15:33 51°26.375 2°48.989 305.6 0.8 61 25
2012-04-19 09:15:38 51°26.376 2°48.99 304.9 0.9 48 25
2012-04-19 09:15:43 51°26.376 2°48.991 304.8 0.9 48 25
2012-04-19 09:15:48 51°26.377 2°48.993 304.3 0.7 58 25.3
2012-04-19 09:15:53 51°26.377 2°48.994 303.6 0.8 52 25.2
2012-04-19 09:15:58 51°26.378 2°48.996 302.7 0.9 48 25.4
2012-04-19 09:16:03 51°26.379 2°48.997 302 0.9 48 25.4
2012-04-19 09:16:08 51°26.38 2°48.999 301.4 0.9 50 25
2012-04-19 09:16:13 51°26.38 2°49 300.6 0.8 54 25
2012-04-19 09:16:18 51°26.381 2°49.002 300.7 0.8 60 24.7
2012-04-19 09:16:23 51°26.382 2°49.003 299.9 0.8 50 24.5
2012-04-19 09:16:28 51°26.382 2°49.004 299.2 0.8 50 24.8
2012-04-19 09:16:33 51°26.383 2°49.006 299.1 0.8 51 25.5
2012-04-19 09:16:38 51°26.384 2°49.007 299 0.8 50 25.1
2012-04-19 09:16:43 51°26.385 2°49.008 298.6 0.9 45 24.8
2012-04-19 09:16:47 51°26.386 2°49.01 297.8 1 40 24.5
2012-04-19 09:16:53 51°26.387 2°49.011 297 1 41 24.3
2012-04-19 09:16:58 51°26.387 2°49.012 296.4 0.8 42 24.5
2012-04-19 09:17:03 51°26.388 2°49.014 296.2 0.9 45 24.2
2012-04-19 09:17:08 51°26.389 2°49.015 296 0.7 56 24
2012-04-19 09:17:13 51°26.39 2°49.016 296.1 0.7 54 23.9
2012-04-19 09:17:18 51°26.39 2°49.017 296.2 0.8 46 23.7
2012-04-19 09:17:23 51°26.391 2°49.019 295.9 0.8 42 23.7
2012-04-19 09:17:28 51°26.392 2°49.02 295.6 0.8 49 23.7
2012-04-19 09:17:33 51°26.393 2°49.022 295.6 0.9 55 23.4
2012-04-19 09:17:38 51°26.394 2°49.023 296.5 0.9 54 22.8
2012-04-19 09:17:43 51°26.395 2°49.025 296.6 0.9 52 22.7
2012-04-19 09:17:48 51°26.395 2°49.026 295.9 0.7 52 23
2012-04-19 09:17:53 51°26.396 2°49.028 295.4 0.9 52 22.8
2012-04-19 09:17:58 51°26.397 2°49.03 295.3 0.9 52 22.8
2012-04-19 09:18:03 51°26.398 2°49.031 295.4 0.9 49 22.6
2012-04-19 09:18:08 51°26.398 2°49.033 295.5 0.9 54 22.2
2012-04-19 09:18:14 51°26.399 2°49.035 295.7 0.9 53 21.7
2012-04-19 09:18:18 51°26.4 2°49.036 295.7 0.9 48 21.8
2012-04-19 09:18:23 51°26.401 2°49.038 295.6 1.2 50 21.7
2012-04-19 09:18:28 51°26.401 2°49.04 295.7 1 59 21.5
2012-04-19 09:18:33 51°26.403 2°49.042 297.1 1 45 20.6
2012-04-19 09:18:38 51°26.403 2°49.043 297.7 0.9 36 20.4
2012-04-19 09:18:43 51°26.404 2°49.044 297.7 0.9 26 20.4
2012-04-19 09:18:48 51°26.405 2°49.044 296.8 0.9 18 20.8
2012-04-19 09:18:53 51°26.406 2°49.044 295.1 0.8 9 21.4
2012-04-19 09:18:58 51°26.408 2°49.044 293.1 0.8 356 21.9
2012-04-19 09:19:03 51°26.409 2°49.044 290.8 0.8 351 22
2012-04-19 09:19:07 51°26.41 2°49.043 288.9 1 347 22.1
2012-04-19 09:19:13 51°26.411 2°49.042 287.4 1.1 337 22
2012-04-19 09:19:18 51°26.412 2°49.04 284.9 1.1 329 22.3
2012-04-19 09:19:23 51°26.413 2°49.039 283 1.1 318 22.4
2012-04-19 09:19:28 51°26.414 2°49.038 280.8 1 308 22.6
2012-04-19 09:19:33 51°26.415 2°49.036 278.6 1 309 22.9
2012-04-19 09:19:38 51°26.416 2°49.034 276.7 1.1 310 23
2012-04-19 09:19:43 51°26.417 2°49.032 274.8 1 301 23.3
2012-04-19 09:19:48 51°26.418 2°49.029 271.8 1.1 301 22.9
2012-04-19 09:19:53 51°26.418 2°49.028 269.5 1 300 23.1
2012-04-19 09:19:58 51°26.418 2°49.026 266.9 1.1 281 23
2012-04-19 09:20:03 51°26.419 2°49.023 264.3 1.2 284 22.8
2012-04-19 09:20:08 51°26.419 2°49.021 261.9 1.2 273 22.5
2012-04-19 09:20:13 51°26.419 2°49.018 259.4 1.3 278 22.5
2012-04-19 09:20:18 51°26.419 2°49.016 257.5 1.2 277 22.6
2012-04-19 09:20:23 51°26.419 2°49.013 255.6 1.3 267 22.4
2012-04-19 09:20:27 51°26.419 2°49.011 253 1.2 259 22.2
2012-04-19 09:20:33 51°26.419 2°49.008 250.2 1.2 264 22
2012-04-19 09:20:38 51°26.418 2°49.005 247.5 1.3 261 21
2012-04-19 09:20:43 51°26.418 2°49.002 245.2 1.3 260 20.8
2012-04-19 09:20:48 51°26.417 2°48.999 242.9 1.4 255 21.2
2012-04-19 09:20:53 51°26.417 2°48.996 241 1.7 244 21.2
2012-04-19 09:20:58 51°26.416 2°48.992 239.7 1.7 247 21.1
2012-04-19 09:21:03 51°26.415 2°48.989 238.9 1.8 245 21.9
2012-04-19 09:21:08 51°26.414 2°48.984 239 1.9 250 22.9
2012-04-19 09:21:13 51°26.413 2°48.981 239.5 1.9 246 23.7
2012-04-19 09:21:18 51°26.412 2°48.976 240.2 2.2 247 23.7
2012-04-19 09:21:23 51°26.411 2°48.971 240.6 2.2 248 23
2012-04-19 09:21:28 51°26.409 2°48.965 241.4 2.4 254 23.8
2012-04-19 09:21:33 51°26.408 2°48.96 241.7 2.8 246 24.4
2012-04-19 09:21:38 51°26.406 2°48.954 242 2.9 249 24.2
2012-04-19 09:21:43 51°26.405 2°48.948 242.4 3 248 24.7
2012-04-19 09:21:48 51°26.403 2°48.941 242.6 3.2 249 24.1
2012-04-19 09:21:53 51°26.402 2°48.935 242.9 3 249 24.2
2012-04-19 09:21:58 51°26.4 2°48.928 243.9 3 250 24.3
2012-04-19 09:22:03 51°26.399 2°48.922 244.8 3.1 250 24.5
2012-04-19 09:22:08 51°26.397 2°48.915 245.4 3 253 23.7
2012-04-19 09:22:13 51°26.396 2°48.909 245.6 3.2 249 23.2
2012-04-19 09:22:18 51°26.395 2°48.902 246.6 3.2 251 22.8
2012-04-19 09:22:23 51°26.393 2°48.895 247.1 3.3 251 23.4
2012-04-19 09:22:28 51°26.392 2°48.888 246.9 3.4 251 23
2012-04-19 09:22:33 51°26.39 2°48.881 246.5 3.3 250 23.4
2012-04-19 09:22:38 51°26.389 2°48.875 246.1 3.3 251 23.5
2012-04-19 09:22:43 51°26.387 2°48.867 245.8 3.4 249 23.5
2012-04-19 09:22:47 51°26.386 2°48.862 245.4 3.4 250 23.4
2012-04-19 09:22:53 51°26.383 2°48.854 244.7 3.4 247 23.4
2012-04-19 09:22:58 51°26.381 2°48.846 244 3.5 244 22.2
2012-04-19 09:23:03 51°26.379 2°48.839 243.3 3.5 246 22.4
2012-04-19 09:23:08 51°26.377 2°48.831 242.9 3.6 245 20.6
2012-04-19 09:23:13 51°26.375 2°48.824 243.1 3.7 244 20.1
2012-04-19 09:23:18 51°26.372 2°48.817 242.7 3.7 244 20.5
2012-04-19 09:23:23 51°26.37 2°48.809 242.5 3.7 242 22.1
2012-04-19 09:23:28 51°26.367 2°48.802 241.9 3.7 242 22.8
2012-04-19 09:23:33 51°26.366 2°48.795 241.8 3.5 243 22.5
2012-04-19 09:23:38 51°26.364 2°48.789 242.3 3.4 244 23.5
2012-04-19 09:23:43 51°26.361 2°48.782 242.5 3.4 244 23.7
2012-04-19 09:23:48 51°26.359 2°48.775 242.5 3.6 242 23.5
2012-04-19 09:23:53 51°26.357 2°48.768 242 3.7 244 23.7
2012-04-19 09:23:58 51°26.355 2°48.76 241.7 3.7 243 23.3
2012-04-19 09:24:03 51°26.352 2°48.753 241.5 3.6 243 23
2012-04-19 09:24:08 51°26.35 2°48.746 241.4 3.5 242 23.4
2012-04-19 09:24:13 51°26.348 2°48.739 241.2 3.5 246 23
2012-04-19 09:24:18 51°26.346 2°48.732 241.5 3.6 244 22.7
2012-04-19 09:24:23 51°26.344 2°48.724 241.8 3.6 245 22.5
2012-04-19 09:24:28 51°26.341 2°48.716 241.8 3.9 242 22
2012-04-19 09:24:33 51°26.339 2°48.708 241.7 4.3 242 21.2
2012-04-19 09:24:38 51°26.335 2°48.699 241.2 4.7 240 20.8
2012-04-19 09:24:43 51°26.332 2°48.689 239.8 4.9 239 22.3
2012-04-19 09:24:47 51°26.329 2°48.681 238.9 5.3 239 22.3
2012-04-19 09:24:53 51°26.325 2°48.669 238.1 5.3 237 22.4
2012-04-19 09:24:58 51°26.321 2°48.659 238.1 5.4 238 22.3
2012-04-19 09:25:03 51°26.316 2°48.648 237.5 5.8 237 21.1
2012-04-19 09:25:08 51°26.311 2°48.636 236.9 6.3 237 21.9
2012-04-19 09:25:13 51°26.306 2°48.623 236.4 6.8 236 23.2
2012-04-19 09:25:18 51°26.3 2°48.61 236.5 7.2 236 24.2
2012-04-19 09:25:23 51°26.294 2°48.595 236.7 7.7 236 24.3
2012-04-19 09:25:28 51°26.288 2°48.579 237.1 8.3 237 24.4
2012-04-19 09:25:33 51°26.282 2°48.563 237.6 8.7 237 23.6
2012-04-19 09:25:38 51°26.275 2°48.546 238 9.1 238 23
2012-04-19 09:25:43 51°26.268 2°48.528 238.1 9.4 237 21.8
2012-04-19 09:25:48 51°26.26 2°48.51 237.9 9.6 237 21.9
2012-04-19 09:25:53 51°26.253 2°48.492 237.8 9.9 237 23.4
2012-04-19 09:25:58 51°26.245 2°48.473 237.6 10.1 236 24.1
2012-04-19 09:26:03 51°26.237 2°48.453 237.3 10.4 237 24.3
2012-04-19 09:26:08 51°26.229 2°48.434 237.7 10.4 237 24.6
2012-04-19 09:26:13 51°26.221 2°48.414 237.8 10.6 237 22.1
2012-04-19 09:26:18 51°26.213 2°48.394 237.8 10.8 237 23.3
2012-04-19 09:26:23 51°26.205 2°48.373 238.1 11 237 24.7
2012-04-19 09:26:28 51°26.196 2°48.352 238.1 11.2 237 24
2012-04-19 09:26:33 51°26.188 2°48.33 238.2 11.4 239 23.3
2012-04-19 09:26:38 51°26.18 2°48.309 238.9 11.3 240 23.4
2012-04-19 09:26:43 51°26.172 2°48.287 240.3 11.4 240 22.9
2012-04-19 09:26:48 51°26.164 2°48.265 240.9 11.4 240 22.3
2012-04-19 09:26:53 51°26.156 2°48.242 240.6 11.6 240 23.3
2012-04-19 09:26:58 51°26.148 2°48.22 241.1 11.6 241 23.9
2012-04-19 09:27:03 51°26.141 2°48.197 242 11.6 242 23.7
2012-04-19 09:27:07 51°26.135 2°48.179 242.3 11.5 242 22
2012-04-19 09:27:13 51°26.126 2°48.151 242.5 11.6 243 19.7
2012-04-19 09:27:18 51°26.118 2°48.129 242.9 11.7 242 23.2
2012-04-19 09:27:23 51°26.111 2°48.106 242.9 11.7 242 24.6
2012-04-19 09:27:28 51°26.103 2°48.083 242.7 11.7 242 25
2012-04-19 09:27:33 51°26.096 2°48.061 242.9 11.6 242 25
2012-04-19 09:27:38 51°26.088 2°48.038 242.9 11.7 242 23.3
2012-04-19 09:27:43 51°26.081 2°48.015 242.5 11.7 242 24.2
2012-04-19 09:27:47 51°26.075 2°47.996 242.4 11.5 243 24.8
2012-04-19 09:27:53 51°26.066 2°47.97 242.5 11.5 242 24.4
2012-04-19 09:27:58 51°26.058 2°47.947 242.3 11.6 243 23.3
2012-04-19 09:28:03 51°26.051 2°47.925 242.9 11.6 243 23.6
2012-04-19 09:28:08 51°26.043 2°47.902 242.9 11.5 243 24.9
2012-04-19 09:28:13 51°26.036 2°47.88 242.4 11.5 242 24.7
2012-04-19 09:28:18 51°26.028 2°47.857 242.5 11.6 242 24.9
2012-04-19 09:28:23 51°26.02 2°47.835 241.6 11.5 240 23.9
2012-04-19 09:28:27 51°26.014 2°47.818 240.1 11.5 239 22.9
2012-04-19 09:28:33 51°26.004 2°47.792 239.4 11.4 238 21.6
2012-04-19 09:28:38 51°25.995 2°47.771 239.1 11.4 237 24.1
2012-04-19 09:28:43 51°25.986 2°47.75 237.8 11.5 236 25.7
2012-04-19 09:28:48 51°25.977 2°47.729 237.2 11.5 236 25.7
2012-04-19 09:28:53 51°25.968 2°47.708 236.5 11.5 235 26
2012-04-19 09:28:58 51°25.958 2°47.687 235.5 11.5 234 25.9
2012-04-19 09:29:03 51°25.948 2°47.667 234.8 11.5 233 25.3
2012-04-19 09:29:08 51°25.939 2°47.647 234.7 11.5 233 24.7
2012-04-19 09:29:13 51°25.929 2°47.626 234.4 11.5 233 24
2012-04-19 09:29:18 51°25.92 2°47.606 234.3 11.4 232 24.7
2012-04-19 09:29:23 51°25.91 2°47.586 233.9 11.5 232 26.5
2012-04-19 09:29:28 51°25.9 2°47.565 233.7 11.6 232 26.5
2012-04-19 09:29:33 51°25.891 2°47.544 234 11.6 234 25.8
2012-04-19 09:29:38 51°25.881 2°47.524 234 11.5 233 24.8
2012-04-19 09:29:43 51°25.871 2°47.503 234.1 11.6 233 22.5
2012-04-19 09:29:48 51°25.862 2°47.483 234.5 11.6 233 24.5
2012-04-19 09:29:53 51°25.853 2°47.462 234.3 11.5 234 25.7
2012-04-19 09:29:58 51°25.843 2°47.442 234.6 11.6 233 25.9
2012-04-19 09:30:03 51°25.833 2°47.421 234.5 11.5 234 25.9
2012-04-19 09:30:08 51°25.824 2°47.401 234.6 11.4 234 25.7
2012-04-19 09:30:13 51°25.814 2°47.38 234.6 11.6 233 24.4
2012-04-19 09:30:18 51°25.805 2°47.359 234.7 11.6 234 23.4
2012-04-19 09:30:23 51°25.796 2°47.338 235.2 11.6 234 24.7
2012-04-19 09:30:28 51°25.787 2°47.317 235.9 11.6 235 23.7
2012-04-19 09:30:33 51°25.778 2°47.296 236.5 11.5 235 25.1
2012-04-19 09:30:38 51°25.769 2°47.274 237.4 11.6 237 26.7
2012-04-19 09:30:43 51°25.761 2°47.253 238.8 11.6 238 27
2012-04-19 09:30:48 51°25.753 2°47.23 239.6 11.4 239 27.1
2012-04-19 09:30:53 51°25.744 2°47.209 240.2 11.5 238 25.9
2012-04-19 09:30:58 51°25.737 2°47.187 239.6 11.5 239 25.2
2012-04-19 09:31:03 51°25.728 2°47.165 239.6 11.4 240 23.5
2012-04-19 09:31:08 51°25.72 2°47.144 240.6 11.3 240 24.2
2012-04-19 09:31:13 51°25.712 2°47.122 240.6 11.3 239 25.3
2012-04-19 09:31:18 51°25.704 2°47.1 240.3 11.4 239 25.6
2012-04-19 09:31:23 51°25.696 2°47.079 240.2 11.4 239 24.5
2012-04-19 09:31:28 51°25.689 2°47.057 240.3 11.3 240 24.3
2012-04-19 09:31:33 51°25.681 2°47.035 241.1 11.3 241 26.4
2012-04-19 09:31:38 51°25.673 2°47.013 241 11.2 239 27.2
2012-04-19 09:31:43 51°25.665 2°46.992 239.5 11.3 239 27.2
2012-04-19 09:31:48 51°25.656 2°46.971 239 11.2 238 27.3
2012-04-19 09:31:53 51°25.648 2°46.95 238.7 11.3 238 27.2
2012-04-19 09:31:58 51°25.639 2°46.928 238.5 11.3 237 26.9
2012-04-19 09:32:03 51°25.631 2°46.908 238.2 11.2 238 24.9
2012-04-19 09:32:07 51°25.624 2°46.891 237.8 11.2 237 25.4
2012-04-19 09:32:13 51°25.614 2°46.866 237.8 11.2 236 26.3
2012-04-19 09:32:18 51°25.605 2°46.846 237.1 11.2 235 25.4
2012-04-19 09:32:23 51°25.596 2°46.826 236 11.2 235 24.2